createdAt,value
2022-12-05T00:01:52.593Z,5.81
2022-12-05T00:06:46.235Z,5.00
2022-12-05T00:11:43.020Z,4.60
2022-12-05T00:16:38.715Z,4.55
2022-12-05T00:21:38.014Z,5.82
2022-12-05T00:26:34.093Z,5.04
2022-12-05T00:31:30.012Z,4.62
2022-12-05T00:36:26.178Z,5.37
2022-12-05T00:41:25.052Z,5.27
2022-12-05T00:46:20.455Z,5.36
2022-12-05T00:51:17.212Z,4.61
2022-12-05T00:56:12.850Z,4.24
2022-12-05T01:01:14.953Z,5.79
2022-12-05T01:06:10.681Z,5.54
2022-12-05T01:11:08.014Z,5.43
2022-12-05T01:16:07.833Z,5.29
2022-12-05T01:21:01.323Z,5.22
2022-12-05T01:25:54.768Z,5.68
2022-12-05T01:30:51.431Z,4.37
2022-12-05T01:35:47.165Z,4.29
2022-12-05T01:40:42.895Z,4.28
2022-12-05T01:45:38.419Z,4.50
2022-12-05T01:50:34.610Z,5.39
2022-12-05T01:55:27.939Z,4.75
2022-12-05T02:00:24.671Z,5.09
2022-12-05T02:05:21.802Z,4.93
2022-12-05T02:10:20.809Z,5.05
2022-12-05T02:15:29.691Z,4.97
2022-12-05T02:20:35.620Z,4.46
2022-12-05T02:26:03.102Z,4.13
2022-12-05T02:31:01.725Z,4.23
2022-12-05T02:36:07.347Z,3.93
2022-12-05T02:41:10.851Z,5.30
2022-12-05T02:46:12.915Z,5.32
2022-12-05T02:51:10.743Z,5.29
2022-12-05T02:56:05.507Z,4.14
2022-12-05T03:00:59.995Z,4.19
2022-12-05T03:06:04.890Z,4.83
2022-12-05T03:11:00.099Z,4.02
2022-12-05T03:16:03.316Z,4.92
2022-12-05T03:21:05.532Z,5.16
2022-12-05T03:26:12.366Z,3.94
2022-12-05T03:31:10.525Z,3.92
2022-12-05T03:36:13.276Z,3.96
2022-12-05T03:41:10.860Z,4.13
2022-12-05T03:46:12.645Z,5.08
2022-12-05T03:51:13.340Z,3.91
2022-12-05T03:56:10.367Z,5.11
2022-12-05T04:01:08.381Z,3.76
2022-12-05T04:06:04.516Z,4.26
2022-12-05T04:11:04.627Z,4.69
2022-12-05T04:16:23.033Z,4.91
2022-12-05T04:21:36.550Z,3.84
2022-12-05T04:26:33.910Z,4.43
2022-12-05T04:31:35.548Z,4.65
2022-12-05T04:36:35.029Z,3.78
2022-12-05T04:41:35.474Z,4.97
2022-12-05T04:46:32.600Z,4.58
2022-12-05T04:51:30.058Z,3.78
2022-12-05T04:56:29.710Z,4.41
2022-12-05T05:01:32.173Z,4.64
2022-12-05T05:06:26.763Z,3.67
2022-12-05T05:11:22.480Z,3.95
2022-12-05T05:16:31.377Z,3.79
2022-12-05T05:21:31.955Z,4.85
2022-12-05T05:26:27.806Z,3.72
2022-12-05T05:36:33.217Z,3.88
2022-12-05T05:41:31.271Z,4.68
2022-12-05T05:46:27.578Z,4.39
2022-12-05T05:51:23.796Z,3.96
2022-12-05T05:56:23.443Z,4.15
2022-12-05T06:01:20.488Z,4.21
2022-12-05T06:06:17.034Z,4.38
2022-12-05T06:11:12.594Z,4.74
2022-12-05T06:16:09.065Z,4.50
2022-12-05T06:21:02.725Z,4.56
2022-12-05T06:25:57.624Z,4.31
2022-12-05T06:30:50.963Z,4.75
2022-12-05T06:35:48.217Z,4.92
2022-12-05T06:40:42.618Z,4.72
2022-12-05T06:45:35.958Z,4.11
2022-12-05T06:50:30.355Z,4.79
2022-12-05T06:55:25.023Z,4.91
2022-12-05T07:00:36.336Z,4.58
2022-12-05T07:05:29.621Z,4.05
2022-12-05T07:10:24.388Z,4.50
2022-12-05T07:15:17.855Z,3.68
2022-12-05T07:20:12.860Z,4.58
2022-12-05T07:25:06.760Z,5.03
2022-12-05T07:30:02.019Z,5.15
2022-12-05T07:34:56.272Z,4.97
2022-12-05T07:39:50.301Z,5.02
2022-12-05T07:44:49.592Z,5.02
2022-12-05T07:49:44.300Z,4.30
2022-12-05T07:54:37.517Z,4.36
2022-12-05T07:59:30.907Z,5.28
2022-12-05T08:04:26.334Z,4.68
2022-12-05T08:09:21.083Z,5.34
2022-12-05T08:14:14.519Z,5.26
2022-12-05T08:19:13.029Z,5.26
2022-12-05T08:24:08.039Z,4.48
2022-12-05T08:29:04.445Z,5.47
2022-12-05T08:33:59.466Z,5.49
2022-12-05T08:38:58.083Z,4.97
2022-12-05T08:43:51.435Z,5.06
2022-12-05T08:48:46.197Z,5.70
2022-12-05T08:53:44.342Z,5.05
2022-12-05T08:58:40.260Z,5.12
2022-12-05T09:03:33.496Z,4.94
2022-12-05T09:08:28.034Z,5.29
2022-12-05T09:13:21.423Z,5.66
2022-12-05T09:18:15.415Z,5.75
2022-12-05T09:23:14.464Z,5.15
2022-12-05T09:28:13.336Z,5.82
2022-12-05T09:33:06.821Z,5.77
2022-12-05T09:38:00.122Z,4.40
2022-12-05T09:43:00.390Z,5.89
2022-12-05T09:48:00.766Z,4.78
2022-12-05T09:53:05.421Z,5.98
2022-12-05T09:58:01.723Z,5.81
2022-12-05T10:03:04.069Z,5.70
2022-12-05T10:08:11.855Z,5.95
2022-12-05T10:13:23.325Z,4.81
2022-12-05T10:18:28.887Z,6.02
2022-12-05T10:23:55.421Z,6.00
2022-12-05T10:28:48.073Z,5.47
2022-12-05T10:33:48.701Z,5.89
2022-12-05T10:38:42.505Z,6.09
2022-12-05T10:43:38.551Z,5.25
2022-12-05T10:48:36.183Z,5.48
2022-12-05T10:53:39.418Z,6.03
2022-12-05T10:58:32.920Z,5.71
2022-12-05T11:03:35.557Z,5.88
2022-12-05T11:09:05.344Z,5.35
2022-12-05T11:13:56.319Z,6.21
2022-12-05T11:18:58.961Z,6.27
2022-12-05T11:23:53.770Z,5.80
2022-12-05T11:28:47.498Z,6.23
2022-12-05T11:33:41.707Z,6.37
2022-12-05T11:38:35.383Z,6.24
2022-12-05T11:43:54.924Z,5.34
2022-12-05T11:49:01.645Z,6.10
2022-12-05T11:54:42.091Z,6.35
2022-12-05T12:00:04.049Z,6.22
2022-12-05T12:05:17.467Z,6.12
2022-12-05T12:10:20.947Z,6.05
2022-12-05T12:15:35.727Z,5.57
2022-12-05T12:20:43.226Z,6.78
2022-12-05T12:25:46.105Z,6.75
2022-12-05T12:30:55.567Z,6.45
2022-12-05T12:35:57.464Z,6.31
2022-12-05T12:40:54.857Z,6.31
2022-12-05T12:46:14.407Z,6.72
2022-12-05T12:51:13.447Z,5.75
2022-12-05T12:56:22.346Z,5.79
2022-12-05T13:01:31.057Z,6.68
2022-12-05T13:06:30.399Z,6.56
2022-12-05T13:11:25.109Z,5.88
2022-12-05T13:16:45.572Z,6.71
2022-12-05T13:21:39.977Z,5.83
2022-12-05T13:26:36.131Z,6.64
2022-12-05T13:31:42.794Z,6.87
2022-12-05T13:36:59.324Z,6.86
2022-12-05T13:42:12.530Z,6.64
2022-12-05T13:47:19.009Z,6.75
2022-12-05T13:52:18.263Z,5.56
2022-12-05T13:57:47.146Z,6.86
2022-12-05T14:02:55.936Z,6.63
2022-12-05T14:07:50.623Z,6.49
2022-12-05T14:12:54.625Z,6.79
2022-12-05T14:17:48.046Z,6.43
2022-12-05T14:23:10.863Z,6.43
2022-12-05T14:28:23.953Z,6.62
2022-12-05T14:33:19.198Z,6.63
2022-12-05T14:38:27.422Z,6.82
2022-12-05T14:43:26.931Z,6.77
2022-12-05T14:48:34.495Z,6.78
2022-12-05T14:53:46.098Z,6.84
2022-12-05T14:58:46.329Z,6.83
2022-12-05T15:03:44.147Z,6.85
2022-12-05T15:08:51.111Z,6.87
2022-12-05T15:13:45.801Z,6.87
2022-12-05T15:18:46.986Z,6.87
2022-12-05T15:24:03.506Z,5.84
2022-12-05T15:29:06.837Z,6.18
2022-12-05T15:34:07.078Z,6.23
2022-12-05T15:39:32.406Z,6.79
2022-12-05T15:44:42.352Z,5.55
2022-12-05T15:49:42.519Z,6.48
2022-12-05T15:54:55.140Z,5.63
2022-12-05T16:00:26.930Z,6.85
2022-12-05T16:05:39.413Z,5.46
2022-12-05T16:10:47.220Z,5.53
2022-12-05T16:16:07.851Z,5.65
2022-12-05T16:21:39.571Z,6.29
2022-12-05T16:26:38.725Z,6.45
2022-12-05T16:31:35.699Z,6.17
2022-12-05T16:36:57.092Z,6.76
2022-12-05T16:41:52.695Z,6.93
2022-12-05T16:46:52.468Z,6.41
2022-12-05T16:52:07.061Z,5.60
2022-12-05T16:57:46.557Z,5.31
2022-12-05T17:02:42.919Z,6.88
2022-12-05T17:07:38.969Z,6.60
2022-12-05T17:12:35.390Z,6.52
2022-12-05T17:17:29.261Z,6.94
2022-12-05T17:22:26.325Z,6.93
2022-12-05T17:27:24.563Z,6.78
2022-12-05T17:32:19.923Z,6.97
2022-12-05T17:37:13.650Z,6.97
2022-12-05T17:42:15.964Z,5.74
2022-12-05T17:47:12.858Z,6.14
2022-12-05T17:52:21.538Z,6.95
2022-12-05T17:57:31.094Z,5.32
2022-12-05T18:02:27.855Z,6.55
2022-12-05T18:07:23.376Z,5.71
2022-12-05T18:12:16.903Z,6.96
2022-12-05T18:17:36.373Z,5.66
2022-12-05T18:22:40.481Z,5.51
2022-12-05T18:27:36.863Z,6.33
2022-12-05T18:32:31.887Z,6.44
2022-12-05T18:37:29.481Z,6.17
2022-12-05T18:42:32.061Z,5.80
2022-12-05T18:47:28.818Z,6.99
2022-12-05T18:52:27.726Z,5.77
2022-12-05T18:57:21.274Z,6.69
2022-12-05T19:02:15.329Z,6.69
2022-12-05T19:07:10.831Z,6.57
2022-12-05T19:12:05.929Z,5.83
2022-12-05T19:17:08.000Z,5.64
2022-12-05T19:22:10.021Z,6.21
2022-12-05T19:27:08.902Z,5.70
2022-12-05T19:32:11.207Z,5.88
2022-12-05T19:37:20.524Z,6.08
2022-12-05T19:42:14.191Z,5.99
2022-12-05T19:47:18.284Z,6.11
2022-12-05T19:52:18.244Z,5.93
2022-12-05T19:57:18.212Z,6.36
2022-12-05T20:02:26.698Z,6.06
2022-12-05T20:07:25.689Z,7.08
2022-12-05T20:12:25.010Z,6.02
2022-12-05T20:17:27.426Z,7.09
2022-12-05T20:22:23.618Z,5.98
2022-12-05T20:27:19.265Z,6.10
2022-12-05T20:32:22.162Z,6.40
2022-12-05T20:37:24.629Z,6.87
2022-12-05T20:42:44.999Z,7.13
2022-12-05T20:47:45.206Z,7.20
2022-12-05T20:52:53.829Z,6.90
2022-12-05T20:58:01.249Z,6.13
2022-12-05T21:02:59.450Z,6.44
2022-12-05T21:07:54.706Z,6.67
2022-12-05T21:12:59.045Z,6.36
2022-12-05T21:17:56.242Z,6.92
2022-12-05T21:22:53.488Z,5.89
2022-12-05T21:27:47.308Z,5.96
2022-12-05T21:32:42.514Z,6.78
2022-12-05T21:37:41.427Z,6.54
2022-12-05T21:42:41.187Z,6.45
2022-12-05T21:47:36.892Z,6.37
2022-12-05T21:52:39.519Z,6.35
2022-12-05T21:57:39.091Z,6.89
2022-12-05T22:02:34.018Z,6.15
2022-12-05T22:07:29.378Z,6.60
2022-12-05T22:12:27.164Z,6.93
2022-12-05T22:17:25.111Z,6.63
2022-12-05T22:22:21.519Z,6.49
2022-12-05T22:27:26.643Z,6.19
2022-12-05T22:32:27.936Z,6.72
2022-12-05T22:37:21.596Z,6.20
2022-12-05T22:42:18.436Z,6.16
2022-12-05T22:47:14.566Z,6.14
2022-12-05T22:52:13.063Z,6.93
2022-12-05T22:57:06.595Z,7.28
2022-12-05T23:02:00.282Z,7.17
2022-12-05T23:06:57.629Z,6.62
2022-12-05T23:11:55.766Z,6.53
2022-12-05T23:16:51.685Z,6.13
2022-12-05T23:21:45.318Z,6.51
2022-12-05T23:26:42.284Z,6.93
2022-12-05T23:31:39.676Z,6.73
2022-12-05T23:36:34.410Z,6.98
2022-12-05T23:41:29.287Z,6.26
2022-12-05T23:46:27.207Z,6.41
2022-12-05T23:51:28.608Z,6.56
2022-12-05T23:56:26.429Z,7.26
